Time;durP1;ratioP1;P1;durP2;ratioP2;P2;SDS_P1;SDS_P2;PMS_P1;PMS_P2;Temp;Humidity;BMP_temperature;BMP_pressure;BME280_temperature;BME280_humidity;BME280_pressure;Samples;Min_cycle;Max_cycle;Signal;HPM_P1;HPM_P2
2023/08/21 00:00:09;;;;;;;5.13;4.72;;;;;;;;;;5070501;28;20669;-62
2023/08/21 00:02:35;;;;;;;6.05;5.22;;;;;;;;;;5072499;28;20260;-62
2023/08/21 00:05:02;;;;;;;5.78;5.38;;;;;;;;;;5072826;28;20210;-62
2023/08/21 00:07:28;;;;;;;6.10;5.70;;;;;;;;;;5070173;28;20226;-62
2023/08/21 00:09:54;;;;;;;5.72;5.22;;;;;;;;;;5070551;28;20222;-61
2023/08/21 00:12:21;;;;;;;6.75;6.25;;;;;;;;;;5070263;28;20238;-61
2023/08/21 00:14:47;;;;;;;5.30;4.90;;;;;;;;;;5070566;28;20210;-62
2023/08/21 00:17:15;;;;;;;12.55;6.28;;;;;;;;;;5069363;28;20253;-62
2023/08/21 00:19:41;;;;;;;5.97;5.57;;;;;;;;;;5069415;28;20281;-62
2023/08/21 00:22:08;;;;;;;6.72;6.13;;;;;;;;;;5068905;28;20244;-62
2023/08/21 00:24:34;;;;;;;10.68;6.25;;;;;;;;;;5076687;28;20240;-60
2023/08/21 00:27:02;;;;;;;7.15;6.07;;;;;;;;;;5069831;28;20602;-62
2023/08/21 00:29:29;;;;;;;8.57;7.45;;;;;;;;;;5061925;28;20226;-62
2023/08/21 00:31:56;;;;;;;7.68;6.97;;;;;;;;;;5070555;28;20202;-61
2023/08/21 00:34:24;;;;;;;8.55;7.55;;;;;;;;;;5070520;28;20283;-61
2023/08/21 00:36:50;;;;;;;13.35;8.10;;;;;;;;;;5070683;28;20199;-61
2023/08/21 00:39:16;;;;;;;8.25;7.45;;;;;;;;;;5070856;28;20206;-61
2023/08/21 00:41:43;;;;;;;14.20;7.95;;;;;;;;;;5070316;28;20701;-61
2023/08/21 00:44:09;;;;;;;16.95;7.60;;;;;;;;;;5071145;28;20216;-62
2023/08/21 00:46:36;;;;;;;14.60;7.85;;;;;;;;;;5071012;28;20363;-61
2023/08/21 00:49:03;;;;;;;10.93;7.30;;;;;;;;;;5070940;28;20280;-62
2023/08/21 00:51:30;;;;;;;8.50;7.40;;;;;;;;;;5071666;28;20289;-61
2023/08/21 00:53:58;;;;;;;6.93;6.32;;;;;;;;;;5071003;28;20246;-61
2023/08/21 00:56:25;;;;;;;6.57;6.10;;;;;;;;;;5071015;28;20208;-61
2023/08/21 00:58:51;;;;;;;6.22;5.70;;;;;;;;;;5069992;28;20662;-62
2023/08/21 01:01:19;;;;;;;6.35;5.85;;;;;;;;;;5070653;28;20228;-62
2023/08/21 01:03:45;;;;;;;6.65;5.63;;;;;;;;;;5070713;28;20281;-61
2023/08/21 01:06:12;;;;;;;6.82;6.00;;;;;;;;;;5071088;28;20215;-61
2023/08/21 01:08:43;;;;;;;6.70;6.10;;;;;;;;;;5070374;28;20206;-61
2023/08/21 01:11:15;;;;;;;7.28;5.60;;;;;;;;;;5070062;28;20328;-61
2023/08/21 01:13:48;;;;;;;6.85;6.10;;;;;;;;;;5069751;28;20237;-61
2023/08/21 01:16:15;;;;;;;6.78;5.20;;;;;;;;;;5069508;28;20206;-61
2023/08/21 01:18:42;;;;;;;6.35;5.85;;;;;;;;;;5070374;28;20230;-61
2023/08/21 01:21:09;;;;;;;11.85;6.93;;;;;;;;;;5069743;28;20248;-61
2023/08/21 01:23:37;;;;;;;8.63;7.82;;;;;;;;;;5069822;28;20205;-62
2023/08/21 01:26:04;;;;;;;15.43;7.13;;;;;;;;;;5083116;28;20202;-61
2023/08/21 01:28:31;;;;;;;6.70;6.20;;;;;;;;;;5069375;28;20714;-61
2023/08/21 01:31:00;;;;;;;9.18;6.70;;;;;;;;;;5069917;28;20253;-61
2023/08/21 01:33:27;;;;;;;6.32;5.88;;;;;;;;;;5069158;28;20267;-61
2023/08/21 01:35:55;;;;;;;6.28;5.82;;;;;;;;;;5069966;28;20585;-62
2023/08/21 01:38:22;;;;;;;7.90;6.63;;;;;;;;;;5070360;28;20663;-61
2023/08/21 01:40:50;;;;;;;6.65;6.15;;;;;;;;;;5070434;28;20630;-62
2023/08/21 01:43:16;;;;;;;7.15;6.65;;;;;;;;;;5077195;28;20238;-61
2023/08/21 01:45:43;;;;;;;7.78;6.55;;;;;;;;;;5067540;28;20633;-62
2023/08/21 01:48:09;;;;;;;8.23;6.53;;;;;;;;;;5069523;28;20226;-62
2023/08/21 01:50:36;;;;;;;6.82;6.43;;;;;;;;;;5069965;28;20319;-61
2023/08/21 01:53:02;;;;;;;7.43;6.78;;;;;;;;;;5068313;28;20222;-62
2023/08/21 01:55:29;;;;;;;7.15;6.55;;;;;;;;;;5069468;28;20194;-62
2023/08/21 01:57:56;;;;;;;7.60;5.88;;;;;;;;;;5069712;28;20202;-61
2023/08/21 02:00:23;;;;;;;8.23;7.55;;;;;;;;;;5069204;28;20222;-61
2023/08/21 02:02:49;;;;;;;8.40;7.75;;;;;;;;;;5069303;28;20236;-62
2023/08/21 02:05:16;;;;;;;11.57;7.53;;;;;;;;;;5067415;28;20740;-62
2023/08/21 02:07:42;;;;;;;10.38;9.48;;;;;;;;;;5067537;28;20225;-62
2023/08/21 02:10:09;;;;;;;9.05;8.35;;;;;;;;;;5072722;28;20256;-61
2023/08/21 02:12:35;;;;;;;10.18;9.18;;;;;;;;;;5072077;28;20230;-61
2023/08/21 02:15:03;;;;;;;9.07;8.38;;;;;;;;;;5072305;28;20241;-61
2023/08/21 02:17:31;;;;;;;12.88;9.30;;;;;;;;;;5060345;28;20214;-61
2023/08/21 02:19:58;;;;;;;10.60;8.52;;;;;;;;;;5058993;28;20650;-61
2023/08/21 02:22:25;;;;;;;8.50;7.78;;;;;;;;;;5071844;28;20242;-61
2023/08/21 02:24:51;;;;;;;9.65;7.35;;;;;;;;;;5072078;28;20629;-62
2023/08/21 02:27:17;;;;;;;8.30;7.43;;;;;;;;;;5071661;28;20638;-62
2023/08/21 02:29:44;;;;;;;7.95;7.18;;;;;;;;;;5072214;28;20276;-62
2023/08/21 02:32:12;;;;;;;8.05;7.18;;;;;;;;;;5073022;28;20198;-61
2023/08/21 02:34:39;;;;;;;7.80;7.20;;;;;;;;;;5061031;28;20210;-62
2023/08/21 02:37:06;;;;;;;9.07;7.32;;;;;;;;;;5072788;28;20195;-62
2023/08/21 02:39:32;;;;;;;7.07;6.57;;;;;;;;;;5073336;28;20664;-62
2023/08/21 02:41:58;;;;;;;7.15;6.47;;;;;;;;;;5074053;28;20319;-61
2023/08/21 02:44:25;;;;;;;7.05;6.50;;;;;;;;;;5072857;28;20210;-62
2023/08/21 02:46:51;;;;;;;7.03;6.43;;;;;;;;;;5071772;28;20202;-62
2023/08/21 02:49:19;;;;;;;7.20;6.60;;;;;;;;;;5073431;28;20221;-62
2023/08/21 02:51:45;;;;;;;7.78;7.03;;;;;;;;;;5071708;28;20699;-61
2023/08/21 02:54:12;;;;;;;7.13;6.63;;;;;;;;;;5072178;28;20202;-61
2023/08/21 02:56:38;;;;;;;7.82;7.15;;;;;;;;;;5072747;28;20267;-61
2023/08/21 02:59:05;;;;;;;8.90;6.82;;;;;;;;;;5072800;28;20210;-61
2023/08/21 03:01:31;;;;;;;7.10;6.50;;;;;;;;;;5083241;28;20194;-61
2023/08/21 03:03:58;;;;;;;11.05;6.53;;;;;;;;;;5073283;28;20202;-62
2023/08/21 03:06:25;;;;;;;8.13;6.40;;;;;;;;;;5073811;28;20251;-61
2023/08/21 03:08:52;;;;;;;10.23;7.20;;;;;;;;;;5073594;28;20210;-61
2023/08/21 03:11:18;;;;;;;9.18;7.03;;;;;;;;;;5072446;28;20234;-61
2023/08/21 03:13:45;;;;;;;6.30;5.90;;;;;;;;;;5073107;28;20202;-62
2023/08/21 03:16:11;;;;;;;7.13;5.97;;;;;;;;;;5073027;28;20198;-62
2023/08/21 03:18:54;;;;;;;7.03;6.50;;;;;;;;;;5073270;28;20220;-61
2023/08/21 03:21:22;;;;;;;6.95;6.45;;;;;;;;;;5072488;28;20206;-61
2023/08/21 03:23:50;;;;;;;7.25;6.63;;;;;;;;;;5073187;28;20272;-61
2023/08/21 03:26:17;;;;;;;8.48;7.43;;;;;;;;;;5072846;28;20206;-61
2023/08/21 03:28:43;;;;;;;6.78;6.32;;;;;;;;;;5072313;28;20229;-62
2023/08/21 03:31:10;;;;;;;7.43;6.68;;;;;;;;;;5072191;28;20254;-61
2023/08/21 03:33:36;;;;;;;9.48;6.55;;;;;;;;;;5073421;28;20267;-61
2023/08/21 03:36:03;;;;;;;12.90;7.60;;;;;;;;;;5072310;28;20206;-62
2023/08/21 03:38:29;;;;;;;7.65;6.93;;;;;;;;;;5072603;28;20233;-61
2023/08/21 03:40:57;;;;;;;8.55;7.78;;;;;;;;;;5072324;28;20199;-62
2023/08/21 03:43:24;;;;;;;7.70;7.10;;;;;;;;;;5072372;28;20202;-62
2023/08/21 03:45:50;;;;;;;13.38;7.40;;;;;;;;;;5072244;28;20229;-62
2023/08/21 03:48:16;;;;;;;8.50;7.22;;;;;;;;;;5072293;28;20260;-62
2023/08/21 03:50:43;;;;;;;8.30;7.60;;;;;;;;;;5072097;28;20218;-62
2023/08/21 03:53:09;;;;;;;11.10;8.23;;;;;;;;;;5071638;28;20222;-62
2023/08/21 03:55:36;;;;;;;11.82;7.50;;;;;;;;;;5072290;28;20206;-62
2023/08/21 03:58:04;;;;;;;8.60;7.90;;;;;;;;;;5071809;28;20203;-61
2023/08/21 04:00:30;;;;;;;10.30;8.10;;;;;;;;;;5072002;28;20202;-62
2023/08/21 04:02:57;;;;;;;8.23;7.43;;;;;;;;;;5071529;28;20207;-63
2023/08/21 04:05:23;;;;;;;15.00;8.07;;;;;;;;;;5071289;28;20209;-61
2023/08/21 04:07:50;;;;;;;7.88;6.95;;;;;;;;;;5075184;28;20548;-62
2023/08/21 04:10:16;;;;;;;8.40;7.60;;;;;;;;;;5069103;28;20653;-62
2023/08/21 04:12:43;;;;;;;13.52;7.28;;;;;;;;;;5069942;28;20666;-62
2023/08/21 04:15:11;;;;;;;10.30;7.90;;;;;;;;;;5070549;28;20198;-61
2023/08/21 04:17:38;;;;;;;8.63;7.82;;;;;;;;;;5071492;28;20285;-61
2023/08/21 04:20:04;;;;;;;11.88;7.55;;;;;;;;;;5068172;28;20289;-61
2023/08/21 04:22:31;;;;;;;8.70;7.07;;;;;;;;;;5070555;28;20234;-61
2023/08/21 04:24:57;;;;;;;10.45;7.68;;;;;;;;;;5069999;28;20516;-62
2023/08/21 04:27:24;;;;;;;12.52;7.93;;;;;;;;;;5069807;28;20688;-62
2023/08/21 04:29:50;;;;;;;14.38;7.60;;;;;;;;;;5071058;28;20202;-61
2023/08/21 04:32:18;;;;;;;12.88;8.05;;;;;;;;;;5070564;28;20226;-61
2023/08/21 04:34:45;;;;;;;12.43;8.20;;;;;;;;;;5071585;28;20230;-61
2023/08/21 04:37:11;;;;;;;18.55;7.55;;;;;;;;;;5071716;28;20206;-62
2023/08/21 04:39:37;;;;;;;11.18;7.68;;;;;;;;;;5070914;28;20213;-61
2023/08/21 04:42:04;;;;;;;11.80;8.10;;;;;;;;;;5071570;28;20300;-62
2023/08/21 04:44:31;;;;;;;14.30;8.63;;;;;;;;;;5071035;28;20245;-62
2023/08/21 04:46:57;;;;;;;32.75;20.15;;;;;;;;;;5071647;28;20248;-61
2023/08/21 04:49:25;;;;;;;14.00;11.38;;;;;;;;;;5071655;28;20206;-61
2023/08/21 04:51:52;;;;;;;18.00;13.07;;;;;;;;;;5071208;28;20932;-62
2023/08/21 04:54:18;;;;;;;7.93;7.13;;;;;;;;;;5070878;28;20237;-62
2023/08/21 04:56:44;;;;;;;9.07;7.50;;;;;;;;;;5070668;28;20210;-62
2023/08/21 04:59:11;;;;;;;8.73;7.07;;;;;;;;;;5070310;28;20226;-61
2023/08/21 05:01:37;;;;;;;8.38;7.18;;;;;;;;;;5070521;28;20226;-62
2023/08/21 05:04:04;;;;;;;10.18;6.85;;;;;;;;;;5070810;28;20275;-61
2023/08/21 05:06:32;;;;;;;8.02;6.47;;;;;;;;;;5070779;28;20233;-62
2023/08/21 05:08:58;;;;;;;14.00;6.90;;;;;;;;;;5070408;28;20263;-62
2023/08/21 05:11:25;;;;;;;9.30;6.38;;;;;;;;;;5070561;28;20229;-62
2023/08/21 05:13:51;;;;;;;11.73;10.18;;;;;;;;;;5069461;28;20213;-61
2023/08/21 05:16:18;;;;;;;17.45;14.70;;;;;;;;;;5071034;28;20225;-62
2023/08/21 05:18:44;;;;;;;12.35;9.07;;;;;;;;;;5070037;28;20198;-62
2023/08/21 05:21:11;;;;;;;12.07;7.50;;;;;;;;;;5071234;28;20193;-61
2023/08/21 05:23:38;;;;;;;11.65;6.70;;;;;;;;;;5069664;28;20679;-62
2023/08/21 05:26:05;;;;;;;7.13;6.47;;;;;;;;;;5070600;28;20679;-62
2023/08/21 05:28:31;;;;;;;16.48;8.00;;;;;;;;;;5069981;28;20225;-62
2023/08/21 05:30:58;;;;;;;13.98;6.82;;;;;;;;;;5069924;28;20249;-62
2023/08/21 05:33:24;;;;;;;7.57;6.90;;;;;;;;;;5070428;28;20198;-62
2023/08/21 05:35:50;;;;;;;8.93;7.85;;;;;;;;;;5070672;28;20244;-61
2023/08/21 05:38:17;;;;;;;10.38;7.18;;;;;;;;;;5070312;28;20201;-62
2023/08/21 05:40:45;;;;;;;12.07;6.88;;;;;;;;;;5071705;28;20283;-62
2023/08/21 05:43:11;;;;;;;6.60;6.10;;;;;;;;;;5070139;28;20234;-62
2023/08/21 05:45:38;;;;;;;6.68;5.93;;;;;;;;;;5071223;28;20287;-61
2023/08/21 05:48:04;;;;;;;8.77;6.53;;;;;;;;;;5070267;28;20202;-62
2023/08/21 05:50:31;;;;;;;7.70;6.18;;;;;;;;;;5069905;28;20591;-62
2023/08/21 05:52:58;;;;;;;10.52;6.65;;;;;;;;;;5070120;28;20218;-62
2023/08/21 05:55:25;;;;;;;7.03;6.38;;;;;;;;;;5070381;28;20202;-62
2023/08/21 05:57:52;;;;;;;11.52;6.38;;;;;;;;;;5070312;28;20698;-63
2023/08/21 06:00:19;;;;;;;8.77;6.53;;;;;;;;;;5069388;28;20692;-62
2023/08/21 06:02:46;;;;;;;11.60;6.05;;;;;;;;;;5069911;28;20676;-66
2023/08/21 06:05:12;;;;;;;11.75;6.57;;;;;;;;;;5070682;28;20206;-61
2023/08/21 06:07:40;;;;;;;7.88;6.93;;;;;;;;;;5064444;28;20691;-61
2023/08/21 06:10:07;;;;;;;9.02;5.88;;;;;;;;;;5068284;28;20207;-61
2023/08/21 06:12:33;;;;;;;7.28;5.78;;;;;;;;;;5068184;28;20602;-62
2023/08/21 06:15:02;;;;;;;9.45;5.97;;;;;;;;;;5067994;28;20202;-62
2023/08/21 06:17:28;;;;;;;6.00;5.55;;;;;;;;;;5067597;28;20675;-63
2023/08/21 06:19:55;;;;;;;6.72;6.05;;;;;;;;;;5068471;28;20230;-62
2023/08/21 06:22:21;;;;;;;22.65;19.05;;;;;;;;;;5068394;28;20240;-62
2023/08/21 06:24:48;;;;;;;10.45;8.27;;;;;;;;;;5068777;28;20210;-62
2023/08/21 06:27:14;;;;;;;7.75;6.93;;;;;;;;;;5069424;28;20947;-63
2023/08/21 06:29:41;;;;;;;8.40;6.28;;;;;;;;;;5068208;28;20238;-62
2023/08/21 06:32:09;;;;;;;6.28;5.63;;;;;;;;;;5070662;28;20222;-62
2023/08/21 06:34:35;;;;;;;11.45;5.63;;;;;;;;;;5070219;28;20586;-63
2023/08/21 06:37:02;;;;;;;11.05;5.88;;;;;;;;;;5070716;28;20202;-62
2023/08/21 06:39:28;;;;;;;10.50;5.82;;;;;;;;;;5070580;28;20206;-62
2023/08/21 06:41:54;;;;;;;8.90;7.95;;;;;;;;;;5070274;28;20230;-62
2023/08/21 06:44:21;;;;;;;11.55;6.13;;;;;;;;;;5069269;28;20291;-62
2023/08/21 06:46:48;;;;;;;7.25;5.75;;;;;;;;;;5070277;28;20641;-62
2023/08/21 06:49:15;;;;;;;8.15;6.93;;;;;;;;;;5069905;28;20635;-62
2023/08/21 06:51:42;;;;;;;5.95;5.63;;;;;;;;;;5068904;28;20727;-63
2023/08/21 06:54:08;;;;;;;6.35;5.72;;;;;;;;;;5069530;28;20642;-63
2023/08/21 06:56:35;;;;;;;10.57;7.90;;;;;;;;;;5071432;28;20202;-63
2023/08/21 06:59:02;;;;;;;18.15;7.70;;;;;;;;;;5060794;28;20201;-62
2023/08/21 07:01:28;;;;;;;12.50;8.18;;;;;;;;;;5072882;28;20194;-62
2023/08/21 07:03:54;;;;;;;12.43;9.02;;;;;;;;;;5073086;28;20210;-63
2023/08/21 07:06:22;;;;;;;9.13;7.40;;;;;;;;;;5072835;28;20237;-63
2023/08/21 07:08:49;;;;;;;8.07;7.00;;;;;;;;;;5072531;28;20205;-63
2023/08/21 07:11:17;;;;;;;7.38;6.63;;;;;;;;;;5072498;28;20275;-63
2023/08/21 07:13:43;;;;;;;6.47;5.88;;;;;;;;;;5072621;28;20209;-63
2023/08/21 07:16:10;;;;;;;9.38;6.28;;;;;;;;;;5073526;28;20621;-64
2023/08/21 07:18:36;;;;;;;10.98;7.72;;;;;;;;;;5085153;28;20201;-64
2023/08/21 07:21:04;;;;;;;17.95;11.32;;;;;;;;;;5072235;28;20206;-63
2023/08/21 07:23:32;;;;;;;16.27;12.57;;;;;;;;;;5072800;28;20210;-63
2023/08/21 07:25:59;;;;;;;18.17;12.70;;;;;;;;;;5072997;28;20215;-63
2023/08/21 07:28:25;;;;;;;21.77;16.00;;;;;;;;;;5073349;28;20206;-64
2023/08/21 07:30:55;;;;;;;12.38;9.50;;;;;;;;;;5072778;28;21289;-64
2023/08/21 07:33:21;;;;;;;18.52;11.55;;;;;;;;;;5071750;28;20708;-64
2023/08/21 07:35:48;;;;;;;16.98;12.00;;;;;;;;;;5071972;28;20236;-64
2023/08/21 07:38:14;;;;;;;13.40;9.43;;;;;;;;;;5072607;28;20225;-64
2023/08/21 07:40:42;;;;;;;12.40;8.00;;;;;;;;;;5074820;28;20226;-64
2023/08/21 07:43:09;;;;;;;10.10;8.35;;;;;;;;;;5083179;28;20249;-63
2023/08/21 07:45:37;;;;;;;6.90;6.30;;;;;;;;;;5082178;28;20221;-65
2023/08/21 07:48:05;;;;;;;9.05;5.05;;;;;;;;;;5082825;28;20233;-63
2023/08/21 07:50:31;;;;;;;9.38;5.30;;;;;;;;;;5048857;28;20201;-63
2023/08/21 07:52:58;;;;;;;5.45;4.90;;;;;;;;;;5050279;28;20226;-65
2023/08/21 07:55:24;;;;;;;8.63;5.07;;;;;;;;;;5051671;28;20260;-64
2023/08/21 07:57:52;;;;;;;6.10;4.93;;;;;;;;;;5051234;28;20237;-62
2023/08/21 08:00:19;;;;;;;5.03;4.63;;;;;;;;;;5051238;28;20215;-63
2023/08/21 08:02:46;;;;;;;5.68;5.25;;;;;;;;;;5053129;28;20285;-63
2023/08/21 08:05:12;;;;;;;5.22;4.90;;;;;;;;;;5062405;28;20271;-63
2023/08/21 08:07:38;;;;;;;5.57;4.70;;;;;;;;;;5063494;28;20214;-64
2023/08/21 08:10:05;;;;;;;6.22;5.03;;;;;;;;;;5065066;28;21331;-63
2023/08/21 08:12:33;;;;;;;5.38;4.88;;;;;;;;;;5064092;28;20248;-63
2023/08/21 08:15:00;;;;;;;7.65;7.15;;;;;;;;;;5061285;28;20622;-64
2023/08/21 08:17:27;;;;;;;6.57;6.07;;;;;;;;;;5063641;28;20205;-63
2023/08/21 08:19:53;;;;;;;18.38;16.48;;;;;;;;;;5064818;28;20298;-63
2023/08/21 08:22:20;;;;;;;14.55;12.27;;;;;;;;;;5063594;28;20642;-64
2023/08/21 08:24:46;;;;;;;5.57;5.00;;;;;;;;;;5065559;28;20205;-64
2023/08/21 08:27:13;;;;;;;5.15;4.68;;;;;;;;;;5064186;28;20343;-64
2023/08/21 08:29:39;;;;;;;23.83;18.05;;;;;;;;;;5066524;28;20213;-64
2023/08/21 08:32:07;;;;;;;33.75;30.40;;;;;;;;;;5064834;28;20702;-63
2023/08/21 08:34:34;;;;;;;24.10;21.70;;;;;;;;;;5065980;28;20222;-64
2023/08/21 08:37:00;;;;;;;16.48;15.07;;;;;;;;;;5066015;28;20248;-63
2023/08/21 08:39:27;;;;;;;22.45;20.45;;;;;;;;;;5065632;28;20687;-63
2023/08/21 08:41:57;;;;;;;25.65;23.00;;;;;;;;;;5064927;28;20246;-64
2023/08/21 08:44:25;;;;;;;12.98;9.63;;;;;;;;;;5065838;28;20198;-64
2023/08/21 08:46:52;;;;;;;10.15;9.13;;;;;;;;;;5049500;28;20818;-63
2023/08/21 08:49:20;;;;;;;6.57;6.07;;;;;;;;;;5049795;28;20241;-63
2023/08/21 08:51:48;;;;;;;7.82;7.13;;;;;;;;;;5063997;28;20217;-63
2023/08/21 08:54:15;;;;;;;8.07;7.35;;;;;;;;;;5065005;28;20193;-63
2023/08/21 08:56:41;;;;;;;8.05;7.38;;;;;;;;;;5064910;28;20691;-63
2023/08/21 08:59:08;;;;;;;10.27;8.88;;;;;;;;;;5063882;28;20700;-64
2023/08/21 09:01:35;;;;;;;5.32;4.97;;;;;;;;;;5065564;28;20260;-64
2023/08/21 09:04:01;;;;;;;9.13;6.40;;;;;;;;;;5065371;28;20302;-62
2023/08/21 09:06:29;;;;;;;8.10;5.72;;;;;;;;;;5065309;28;20263;-63
2023/08/21 09:08:56;;;;;;;16.23;14.77;;;;;;;;;;5064670;28;20210;-63
2023/08/21 09:11:23;;;;;;;19.33;17.55;;;;;;;;;;5064827;28;20205;-64
2023/08/21 09:13:50;;;;;;;11.52;10.45;;;;;;;;;;5063927;28;20275;-64
2023/08/21 09:16:16;;;;;;;7.13;6.72;;;;;;;;;;5065137;28;20676;-62
2023/08/21 09:18:47;;;;;;;9.35;6.68;;;;;;;;;;5064115;28;20281;-62
2023/08/21 09:21:16;;;;;;;5.18;4.70;;;;;;;;;;5064239;28;20234;-63
2023/08/21 09:23:44;;;;;;;6.60;6.05;;;;;;;;;;5065273;28;20197;-62
2023/08/21 09:26:10;;;;;;;7.25;6.60;;;;;;;;;;5065715;28;20329;-62
2023/08/21 09:28:37;;;;;;;6.90;6.20;;;;;;;;;;5064290;28;20694;-63
2023/08/21 09:31:03;;;;;;;12.80;7.97;;;;;;;;;;5065065;28;20237;-61
2023/08/21 09:33:30;;;;;;;8.23;5.65;;;;;;;;;;5064184;28;20254;-63
2023/08/21 09:35:56;;;;;;;7.90;4.85;;;;;;;;;;5064207;28;21811;-63
2023/08/21 09:38:23;;;;;;;4.65;4.35;;;;;;;;;;5063929;28;20260;-63
2023/08/21 09:40:54;;;;;;;7.07;6.45;;;;;;;;;;5064858;28;20277;-63
2023/08/21 09:43:21;;;;;;;7.32;6.80;;;;;;;;;;5063582;28;20234;-63
2023/08/21 09:45:48;;;;;;;12.00;7.30;;;;;;;;;;5064375;28;20672;-63
2023/08/21 09:48:14;;;;;;;10.43;5.28;;;;;;;;;;5064550;28;20226;-63
2023/08/21 09:50:41;;;;;;;8.45;4.80;;;;;;;;;;5063829;28;20209;-64
2023/08/21 09:53:08;;;;;;;8.40;7.55;;;;;;;;;;5062861;28;20328;-63
2023/08/21 09:55:36;;;;;;;5.95;5.28;;;;;;;;;;5063762;28;20226;-63
2023/08/21 09:58:04;;;;;;;6.90;4.97;;;;;;;;;;5063521;28;20210;-63
2023/08/21 10:00:31;;;;;;;9.02;5.38;;;;;;;;;;5063453;28;20202;-63
2023/08/21 10:03:01;;;;;;;7.60;4.80;;;;;;;;;;5062889;28;20198;-63
2023/08/21 10:05:28;;;;;;;6.72;4.97;;;;;;;;;;5063177;28;20206;-63
2023/08/21 10:07:56;;;;;;;5.10;4.80;;;;;;;;;;5061351;28;20915;-62
2023/08/21 10:10:22;;;;;;;7.95;5.90;;;;;;;;;;5061545;28;20202;-63
2023/08/21 10:12:49;;;;;;;6.53;5.60;;;;;;;;;;5062363;28;20271;-62
2023/08/21 10:15:17;;;;;;;5.60;5.18;;;;;;;;;;5062084;28;20206;-63
2023/08/21 10:17:44;;;;;;;5.20;4.68;;;;;;;;;;5061959;28;20672;-64
2023/08/21 10:20:11;;;;;;;6.38;4.30;;;;;;;;;;5062169;28;20707;-62
2023/08/21 10:22:42;;;;;;;4.63;4.22;;;;;;;;;;5060647;28;20222;-63
2023/08/21 10:25:15;;;;;;;5.93;4.57;;;;;;;;;;5061610;28;20252;-63
2023/08/21 10:27:42;;;;;;;4.75;4.38;;;;;;;;;;5063756;28;20203;-62
2023/08/21 10:30:13;;;;;;;6.90;5.18;;;;;;;;;;5064404;28;20226;-63
2023/08/21 10:32:46;;;;;;;5.00;4.70;;;;;;;;;;5067403;28;20230;-63
2023/08/21 10:35:15;;;;;;;5.45;4.50;;;;;;;;;;5067402;28;20655;-62
2023/08/21 10:37:56;;;;;;;6.60;4.88;;;;;;;;;;5067528;28;20199;-62
2023/08/21 10:40:23;;;;;;;8.52;5.10;;;;;;;;;;5067292;28;20630;-63
2023/08/21 10:42:49;;;;;;;7.97;4.95;;;;;;;;;;5066914;28;20615;-63
2023/08/21 10:45:16;;;;;;;5.35;4.72;;;;;;;;;;5066000;28;20294;-63
2023/08/21 10:47:42;;;;;;;5.32;4.80;;;;;;;;;;5066948;28;20206;-64
2023/08/21 10:50:10;;;;;;;6.80;5.03;;;;;;;;;;5067213;28;20218;-61
2023/08/21 10:52:39;;;;;;;6.65;4.38;;;;;;;;;;5066391;28;20228;-62
2023/08/21 10:55:06;;;;;;;5.00;4.60;;;;;;;;;;5066138;28;20202;-63
2023/08/21 10:57:33;;;;;;;5.38;4.53;;;;;;;;;;5067196;28;20234;-62
2023/08/21 11:00:03;;;;;;;7.57;4.60;;;;;;;;;;5066501;28;20241;-62
2023/08/21 11:02:30;;;;;;;6.95;4.78;;;;;;;;;;5066083;28;20807;-64
2023/08/21 11:04:57;;;;;;;6.15;5.15;;;;;;;;;;5066540;28;21334;-63
2023/08/21 11:07:24;;;;;;;5.82;4.38;;;;;;;;;;5067512;28;20202;-64
2023/08/21 11:09:51;;;;;;;5.40;3.97;;;;;;;;;;5066951;28;20729;-63
2023/08/21 11:12:19;;;;;;;5.90;4.45;;;;;;;;;;5066443;28;20673;-63
2023/08/21 11:14:45;;;;;;;4.72;4.00;;;;;;;;;;5066598;28;20673;-62
2023/08/21 11:17:12;;;;;;;5.47;3.65;;;;;;;33.77;nan;95372.44;5067716;28;20307;-63
2023/08/21 11:19:39;;;;;;;5.20;4.18;;;;;;;;;;5066975;28;20206;-63
2023/08/21 11:22:06;;;;;;;4.45;4.15;;;;;;;;;;5067433;28;20194;-63
2023/08/21 11:24:44;;;;;;;4.57;4.28;;;;;;;;;;5067259;28;20289;-63
2023/08/21 11:27:12;;;;;;;4.93;4.13;;;;;;;;;;5066595;28;20717;-63
2023/08/21 11:29:39;;;;;;;4.88;4.53;;;;;;;;;;5067315;28;20703;-62
2023/08/21 11:32:08;;;;;;;5.65;4.55;;;;;;;;;;5066676;28;20293;-62
2023/08/21 11:34:35;;;;;;;4.57;4.20;;;;;;;;;;5067228;28;20226;-62
2023/08/21 11:37:01;;;;;;;4.78;4.45;;;;;;;;;;5066414;28;20289;-60
2023/08/21 11:39:30;;;;;;;5.15;4.03;;;;;;;;;;5066717;28;20712;-62
2023/08/21 11:41:58;;;;;;;4.70;4.30;;;;;;;;;;5065305;28;20222;-63
2023/08/21 11:44:24;;;;;;;6.22;4.90;;;;;;;;;;5066672;28;20626;-62
2023/08/21 11:46:52;;;;;;;4.82;4.53;;;;;;;;;;5066356;28;20256;-62
2023/08/21 11:49:18;;;;;;;5.03;4.40;;;;;;;;;;5066014;28;20203;-62
2023/08/21 11:51:45;;;;;;;4.63;4.28;;;;;;;;;;5066073;28;20214;-62
2023/08/21 11:54:12;;;;;;;4.35;4.05;;;;;;;;;;5065091;28;20225;-62
2023/08/21 11:56:41;;;;;;;4.78;4.38;;;;;;;;;;5066397;28;20206;-62
2023/08/21 11:59:09;;;;;;;4.43;4.13;;;;;;;;;;5066981;28;20209;-61
2023/08/21 12:01:35;;;;;;;4.55;4.22;;;;;;;;;;5066399;28;20218;-63
2023/08/21 12:04:02;;;;;;;4.65;4.10;;;;;;;;;;5065957;28;20757;-62
2023/08/21 12:06:32;;;;;;;5.80;4.97;;;;;;;;;;5065806;28;20263;-64
2023/08/21 12:08:58;;;;;;;5.22;4.82;;;;;;;;;;5063920;28;20202;-63
2023/08/21 12:11:25;;;;;;;8.15;5.18;;;;;;;;;;5063582;28;20650;-62
2023/08/21 12:13:52;;;;;;;8.32;4.35;;;;;;;;;;5064960;28;20230;-63
2023/08/21 12:16:20;;;;;;;6.65;4.88;;;;;;;;;;5064540;28;20206;-62
2023/08/21 12:18:46;;;;;;;7.50;4.45;;;;;;;;;;5064714;28;20198;-62
2023/08/21 12:21:13;;;;;;;4.38;4.15;;;;;;;;;;5063487;28;20210;-62
2023/08/21 12:23:39;;;;;;;6.03;5.43;;;;;;;;;;5064080;28;20251;-62
2023/08/21 12:26:06;;;;;;;6.80;4.15;;;;;;;;;;5064635;28;20272;-62
2023/08/21 12:28:32;;;;;;;6.78;4.32;;;;;;;;;;5064333;28;20238;-62
2023/08/21 12:30:58;;;;;;;4.85;4.55;;;;;;;;;;5065507;28;20202;-61
2023/08/21 12:33:26;;;;;;;4.80;4.40;;;;;;;;;;5065663;28;20704;-62
2023/08/21 12:35:53;;;;;;;7.22;4.65;;;;;;;;;;5066102;28;20209;-62
2023/08/21 12:38:20;;;;;;;5.03;4.13;;;;;;;;;;5065482;28;20568;-62
2023/08/21 12:40:47;;;;;;;6.10;4.22;;;;;;;;;;5065709;28;20195;-63
2023/08/21 12:43:13;;;;;;;5.18;4.88;;;;;;;;;;5064776;28;20279;-63
2023/08/21 12:45:40;;;;;;;5.20;4.90;;;;;;;;;;5065893;28;20214;-64
2023/08/21 12:48:08;;;;;;;6.00;3.90;;;;;;;;;;5065400;28;20595;-62
2023/08/21 12:50:36;;;;;;;9.13;5.60;;;;;;;;;;5065446;28;20203;-61
2023/08/21 12:53:02;;;;;;;6.05;5.20;;;;;;;;;;5063252;28;20222;-63
2023/08/21 12:55:29;;;;;;;4.93;4.00;;;;;;;;;;5064793;28;20248;-63
2023/08/21 12:57:56;;;;;;;4.85;4.43;;;;;;;;;;5065252;28;20717;-63
2023/08/21 13:00:22;;;;;;;4.78;4.07;;;;;;;;;;5065605;28;21152;-62
2023/08/21 13:02:49;;;;;;;7.28;4.55;;;;;;;;;;5065239;28;20214;-62
2023/08/21 13:05:16;;;;;;;7.43;4.90;;;;;;;;;;5065113;28;20229;-62
2023/08/21 13:07:43;;;;;;;5.00;4.28;;;;;;;;;;5065078;28;20692;-63
2023/08/21 13:10:10;;;;;;;5.20;4.18;;;;;;;;;;5065565;28;20202;-63
2023/08/21 13:12:36;;;;;;;6.32;4.32;;;;;;;;;;5064662;28;20212;-62
2023/08/21 13:15:03;;;;;;;6.28;4.47;;;;;;;;;;5064284;28;20246;-63
2023/08/21 13:17:30;;;;;;;5.30;4.30;;;;;;;;;;5064387;28;20546;-66
2023/08/21 13:19:56;;;;;;;5.22;4.38;;;;;;;;;;5065217;28;21053;-65
2023/08/21 13:22:23;;;;;;;4.57;4.38;;;;;;;;;;5064606;28;20202;-65
2023/08/21 13:24:51;;;;;;;4.93;4.35;;;;;;;;;;5063606;28;20816;-65
2023/08/21 13:27:17;;;;;;;4.47;4.15;;;;;;;;;;5065151;28;20963;-65
2023/08/21 13:29:44;;;;;;;4.65;4.28;;;;;;;;;;5066044;28;20303;-65
2023/08/21 13:32:10;;;;;;;5.18;4.25;;;;;;;;;;5064860;28;20717;-65
2023/08/21 13:34:37;;;;;;;5.22;4.88;;;;;;;;;;5064535;28;20218;-66
2023/08/21 13:37:04;;;;;;;6.05;3.83;;;;;;;;;;5064591;28;20230;-66
2023/08/21 13:39:30;;;;;;;4.85;4.22;;;;;;;;;;5064278;28;20568;-65
2023/08/21 13:41:58;;;;;;;5.35;5.00;;;;;;;;;;5064659;28;20303;-66
2023/08/21 13:44:24;;;;;;;7.35;4.45;;;;;;;;;;5064293;28;20230;-65
2023/08/21 13:46:51;;;;;;;4.90;4.43;;;;;;;;;;5063723;28;20256;-66
2023/08/21 13:49:17;;;;;;;4.35;4.00;;;;;;;;;;5064054;28;20662;-65
2023/08/21 13:51:44;;;;;;;4.22;3.75;;;;;;;;;;5064076;28;20251;-65
2023/08/21 13:54:11;;;;;;;6.25;4.25;;;;;;;;;;5064295;28;20254;-65
2023/08/21 13:56:37;;;;;;;8.55;4.35;;;;;;;;;;5064535;28;20202;-65
2023/08/21 13:59:05;;;;;;;11.18;5.13;;;;;;;;;;5064814;28;20206;-65
2023/08/21 14:01:32;;;;;;;4.80;4.40;;;;;;;;;;5063320;28;20202;-65
2023/08/21 14:03:59;;;;;;;4.57;4.20;;;;;;;;;;5063883;28;20190;-65
2023/08/21 14:06:25;;;;;;;9.32;5.25;;;;;;;;;;5068314;28;20675;-65
2023/08/21 14:08:52;;;;;;;4.13;3.85;;;;;;;;;;5066850;28;20272;-65
2023/08/21 14:11:18;;;;;;;5.25;4.20;;;;;;;;;;5066211;28;20214;-66
2023/08/21 14:13:45;;;;;;;5.15;4.57;;;;;;;;;;5066323;28;20687;-64
2023/08/21 14:16:13;;;;;;;5.13;4.68;;;;;;;;;;5067605;28;20289;-66
2023/08/21 14:18:39;;;;;;;8.85;4.38;;;;;;;;;;5066331;28;20198;-66
2023/08/21 14:21:06;;;;;;;5.20;4.70;;;;;;;;;;5066671;28;20258;-65
2023/08/21 14:23:32;;;;;;;4.80;4.40;;;;;;;;;;5067034;28;20281;-65
2023/08/21 14:25:59;;;;;;;9.05;4.75;;;;;;;;;;5066612;28;20206;-65
2023/08/21 14:28:25;;;;;;;7.35;4.40;;;;;;;;;;5067304;28;20225;-66
2023/08/21 14:30:53;;;;;;;5.13;4.50;;;;;;;;;;5066446;28;20268;-66
2023/08/21 14:33:21;;;;;;;6.15;5.55;;;;;;;;;;5068167;28;20210;-66
2023/08/21 14:35:47;;;;;;;5.63;5.13;;;;;;;;;;5066456;28;20205;-65